createdAt,value
2023-05-23T00:00:33.712Z,6.88
2023-05-23T00:03:04.896Z,6.60
2023-05-23T00:05:35.495Z,10.13
2023-05-23T00:08:06.074Z,6.50
2023-05-23T00:10:39.049Z,6.18
2023-05-23T00:13:09.773Z,7.65
2023-05-23T00:18:14.080Z,9.57
2023-05-23T00:20:45.788Z,7.68
2023-05-23T00:23:19.618Z,10.50
2023-05-23T00:25:53.577Z,7.13
2023-05-23T00:28:24.440Z,5.65
2023-05-23T00:33:25.118Z,8.40
2023-05-23T00:35:55.619Z,7.70
2023-05-23T00:38:27.013Z,12.48
2023-05-23T00:41:00.733Z,6.95
2023-05-23T00:43:31.792Z,7.28
2023-05-23T00:46:02.831Z,7.75
2023-05-23T00:48:33.896Z,11.82
2023-05-23T00:51:04.497Z,10.75
2023-05-23T00:56:09.329Z,9.00
2023-05-23T00:58:39.865Z,7.95
2023-05-23T01:01:10.940Z,6.97
2023-05-23T01:03:41.499Z,8.40
2023-05-23T01:06:12.566Z,8.90
2023-05-23T01:08:43.382Z,7.78
2023-05-23T01:14:03.020Z,8.52
2023-05-23T01:16:48.976Z,8.70
2023-05-23T01:19:52.442Z,9.30
2023-05-23T01:22:39.711Z,8.73
2023-05-23T01:25:17.432Z,7.43
2023-05-23T01:27:55.135Z,8.25
2023-05-23T01:30:28.111Z,7.45
2023-05-23T01:33:01.849Z,6.85
2023-05-23T01:35:33.196Z,7.15
2023-05-23T01:38:03.776Z,8.05
2023-05-23T01:40:34.182Z,7.60
2023-05-23T01:43:07.916Z,8.95
2023-05-23T01:45:39.143Z,7.68
2023-05-23T01:48:10.734Z,8.77
2023-05-23T01:50:42.213Z,7.00
2023-05-23T01:53:13.888Z,8.20
2023-05-23T01:55:45.754Z,9.63
2023-05-23T01:58:18.851Z,7.32
2023-05-23T02:00:50.034Z,9.50
2023-05-23T02:03:20.772Z,8.02
2023-05-23T02:05:52.561Z,9.73
2023-05-23T02:08:23.016Z,7.65
2023-05-23T02:10:53.959Z,7.82
2023-05-23T02:13:26.976Z,8.32
2023-05-23T02:15:57.687Z,7.15
2023-05-23T02:21:00.083Z,8.32
2023-05-23T02:23:30.569Z,6.63
2023-05-23T02:26:01.112Z,7.63
2023-05-23T02:28:34.139Z,6.45
2023-05-23T02:31:04.982Z,7.95
2023-05-23T02:33:35.814Z,8.45
2023-05-23T02:36:07.126Z,8.40
2023-05-23T02:38:37.847Z,9.80
2023-05-23T02:41:08.644Z,7.57
2023-05-23T02:46:13.872Z,9.82
2023-05-23T02:48:45.643Z,8.30
2023-05-23T02:51:16.654Z,9.48
2023-05-23T02:53:47.255Z,7.38
2023-05-23T02:58:50.736Z,9.37
2023-05-23T03:01:21.228Z,9.32
2023-05-23T03:03:51.800Z,8.38
2023-05-23T03:06:23.030Z,9.02
2023-05-23T03:08:53.657Z,14.52
2023-05-23T03:11:25.036Z,11.90
2023-05-23T03:13:58.136Z,10.45
2023-05-23T03:16:28.735Z,11.57
2023-05-23T03:18:59.330Z,8.82
2023-05-23T03:21:29.943Z,9.45
2023-05-23T03:24:00.564Z,9.77
2023-05-23T03:26:31.065Z,9.20
2023-05-23T03:29:04.200Z,9.38
2023-05-23T03:31:34.738Z,10.07
2023-05-23T03:39:10.016Z,9.13
2023-05-23T03:41:40.534Z,8.18
2023-05-23T03:44:14.947Z,10.25
2023-05-23T03:46:46.063Z,10.45
2023-05-23T03:49:16.724Z,8.73
2023-05-23T03:51:47.258Z,11.18
2023-05-23T03:54:20.576Z,10.57
2023-05-23T03:56:51.223Z,9.43
2023-05-23T03:59:24.553Z,9.27
2023-05-23T04:01:55.396Z,14.25
2023-05-23T04:04:26.548Z,8.73
2023-05-23T04:06:58.322Z,9.90
2023-05-23T04:09:28.926Z,10.70
2023-05-23T04:12:01.339Z,11.43
2023-05-23T04:14:35.353Z,11.30
2023-05-23T04:17:06.047Z,12.77
2023-05-23T04:22:07.129Z,10.80
2023-05-23T04:27:08.955Z,10.20
2023-05-23T04:29:44.460Z,10.32
2023-05-23T04:32:17.040Z,9.65
2023-05-23T04:34:47.531Z,11.23
2023-05-23T04:37:22.389Z,10.60
2023-05-23T04:39:53.340Z,13.18
2023-05-23T04:42:42.598Z,16.08
2023-05-23T04:45:27.318Z,15.25
2023-05-23T04:48:03.200Z,11.32
2023-05-23T04:50:47.887Z,13.25
2023-05-23T04:53:18.802Z,12.57
2023-05-23T04:58:21.826Z,11.35
2023-05-23T05:00:55.868Z,13.43
2023-05-23T05:03:26.778Z,11.32
2023-05-23T05:05:58.179Z,14.93
2023-05-23T05:08:28.828Z,14.00
2023-05-23T05:10:59.935Z,14.52
2023-05-23T05:16:05.026Z,14.07
2023-05-23T05:18:36.609Z,12.85
2023-05-23T05:21:08.378Z,10.38
2023-05-23T05:23:41.226Z,13.63
2023-05-23T05:26:12.796Z,14.70
2023-05-23T05:28:43.770Z,12.38
2023-05-23T05:31:17.426Z,11.05
2023-05-23T05:33:48.128Z,11.13
2023-05-23T05:36:19.936Z,11.85
2023-05-23T05:41:23.627Z,11.85
2023-05-23T05:43:57.094Z,12.25
2023-05-23T05:46:30.724Z,12.13
2023-05-23T05:49:01.733Z,13.30
2023-05-23T05:51:32.464Z,12.77
2023-05-23T05:54:03.130Z,11.55
2023-05-23T05:56:33.653Z,11.27
2023-05-23T06:04:09.800Z,18.92
2023-05-23T06:06:40.871Z,12.75
2023-05-23T06:09:13.221Z,13.25
2023-05-23T06:11:43.717Z,12.50
2023-05-23T06:14:14.277Z,13.98
2023-05-23T06:16:50.911Z,15.77
2023-05-23T06:19:21.419Z,12.52
2023-05-23T06:21:52.070Z,10.30
2023-05-23T06:24:23.802Z,13.35
2023-05-23T06:26:54.356Z,13.93
2023-05-23T06:29:24.825Z,11.40
2023-05-23T06:31:57.957Z,17.15
2023-05-23T06:34:29.068Z,14.60
2023-05-23T06:39:29.810Z,12.20
2023-05-23T06:42:01.631Z,11.80
2023-05-23T06:44:42.549Z,11.90
2023-05-23T06:47:18.047Z,12.68
2023-05-23T06:49:48.668Z,12.30
2023-05-23T06:52:19.248Z,16.33
2023-05-23T06:54:49.823Z,12.90
2023-05-23T06:57:20.436Z,19.45
2023-05-23T06:59:51.214Z,14.40
2023-05-23T07:02:24.430Z,15.77
2023-05-23T07:04:55.137Z,16.60
2023-05-23T07:07:45.911Z,14.05
2023-05-23T07:10:16.539Z,16.00
2023-05-23T07:12:49.601Z,17.10
2023-05-23T07:15:21.907Z,14.02
2023-05-23T07:18:06.620Z,19.00
2023-05-23T07:20:37.524Z,18.58
2023-05-23T07:23:16.040Z,14.60
2023-05-23T07:26:01.170Z,19.50
2023-05-23T07:28:41.083Z,17.60
2023-05-23T07:33:45.688Z,18.90
2023-05-23T07:36:22.695Z,18.02
2023-05-23T07:38:54.568Z,20.83
2023-05-23T07:41:25.317Z,15.70
2023-05-23T07:43:56.069Z,17.13
2023-05-23T07:48:59.845Z,18.05
2023-05-23T07:51:31.135Z,19.63
2023-05-23T07:54:02.892Z,20.80
2023-05-23T07:56:33.748Z,19.30
2023-05-23T08:01:34.534Z,23.40
2023-05-23T08:04:13.517Z,23.52
2023-05-23T08:07:04.323Z,24.05
2023-05-23T08:09:48.835Z,27.77
2023-05-23T08:12:22.506Z,29.33
2023-05-23T08:15:01.709Z,29.60
2023-05-23T08:17:36.433Z,26.65
2023-05-23T08:20:12.435Z,29.25
2023-05-23T08:22:43.272Z,28.13
2023-05-23T08:25:14.214Z,25.33
2023-05-23T08:27:44.747Z,33.47
2023-05-23T08:30:32.990Z,29.13
2023-05-23T08:33:04.981Z,26.55
2023-05-23T08:35:39.144Z,24.23
2023-05-23T08:38:14.474Z,29.38
2023-05-23T08:41:04.853Z,26.05
2023-05-23T08:43:35.662Z,25.95
2023-05-23T08:48:41.802Z,25.45
2023-05-23T08:51:18.161Z,21.70
2023-05-23T08:53:53.803Z,23.48
2023-05-23T08:56:28.774Z,19.70
2023-05-23T08:59:02.343Z,21.77
2023-05-23T09:01:34.643Z,21.08
2023-05-23T09:04:09.415Z,18.40
2023-05-23T09:07:03.750Z,18.35
2023-05-23T09:09:35.195Z,16.73
2023-05-23T09:12:10.466Z,14.85
2023-05-23T09:14:41.732Z,14.10
2023-05-23T09:17:13.170Z,18.80
2023-05-23T09:19:46.199Z,13.70
2023-05-23T09:22:33.682Z,15.13
2023-05-23T09:25:11.099Z,12.95
2023-05-23T09:27:47.512Z,13.23
2023-05-23T09:30:19.527Z,13.48
2023-05-23T09:33:05.748Z,14.32
2023-05-23T09:35:37.098Z,14.98
2023-05-23T09:38:11.634Z,18.48
2023-05-23T09:40:48.773Z,15.38
2023-05-23T09:43:21.197Z,15.65
2023-05-23T09:45:56.580Z,19.45
2023-05-23T09:48:33.748Z,17.13
2023-05-23T09:51:08.860Z,14.32
2023-05-23T09:53:42.334Z,12.73
2023-05-23T09:56:15.538Z,14.23
2023-05-23T09:58:52.024Z,13.52
2023-05-23T10:01:23.205Z,15.73
2023-05-23T10:04:00.144Z,12.63
2023-05-23T10:06:36.708Z,16.15
2023-05-23T10:09:15.550Z,14.93
2023-05-23T10:12:48.079Z,18.02
2023-05-23T10:15:20.380Z,15.98
2023-05-23T10:18:09.281Z,15.95
2023-05-23T10:20:43.575Z,16.52
2023-05-23T10:23:15.877Z,14.55
2023-05-23T10:25:50.466Z,13.43
2023-05-23T10:28:21.449Z,15.60
2023-05-23T10:30:52.228Z,16.13
2023-05-23T10:38:39.924Z,10.82
2023-05-23T10:41:20.112Z,11.13
2023-05-23T10:44:00.381Z,9.77
2023-05-23T10:46:55.649Z,10.70
2023-05-23T10:49:41.775Z,11.20
2023-05-23T10:52:16.796Z,10.73
2023-05-23T10:54:49.725Z,9.05
2023-05-23T10:57:25.784Z,9.88
2023-05-23T10:59:56.624Z,9.77
2023-05-23T11:02:30.687Z,9.32
2023-05-23T11:05:23.780Z,9.55
2023-05-23T11:08:14.131Z,8.98
2023-05-23T11:11:02.066Z,7.50
2023-05-23T11:14:04.737Z,9.80
2023-05-23T11:19:30.939Z,4.55
2023-05-23T11:22:04.191Z,5.13
2023-05-23T11:30:07.390Z,7.30
2023-05-23T11:43:00.889Z,5.47
2023-05-23T11:45:35.128Z,6.25
2023-05-23T11:48:10.353Z,18.50
2023-05-23T11:50:48.965Z,5.43
2023-05-23T11:53:21.941Z,7.55
2023-05-23T11:55:54.819Z,7.05
2023-05-23T11:58:29.017Z,7.43
2023-05-23T12:26:30.778Z,4.68
2023-05-23T13:54:51.001Z,3.97
2023-05-23T13:59:51.762Z,5.35
2023-05-23T17:26:49.715Z,13.32
2023-05-23T17:29:20.640Z,17.27
2023-05-23T17:31:51.511Z,16.52
2023-05-23T17:34:24.882Z,12.77
2023-05-23T17:36:55.483Z,14.32
2023-05-23T17:39:26.032Z,14.38
2023-05-23T17:41:56.548Z,15.32
2023-05-23T17:44:27.132Z,11.75
2023-05-23T17:46:57.807Z,10.65
2023-05-23T17:49:31.055Z,10.65
2023-05-23T17:52:04.959Z,12.50
2023-05-23T17:54:35.730Z,10.77
2023-05-23T17:57:07.034Z,12.77
2023-05-23T17:59:37.682Z,10.52
2023-05-23T18:02:10.911Z,9.73
2023-05-23T18:04:45.157Z,13.95
2023-05-23T18:07:18.842Z,13.98
2023-05-23T18:09:49.473Z,12.77
2023-05-23T18:12:20.271Z,14.50
2023-05-23T18:14:52.406Z,16.02
2023-05-23T18:17:23.149Z,13.40
2023-05-23T18:19:59.085Z,14.57
2023-05-23T18:22:31.894Z,15.88
2023-05-23T18:25:02.636Z,16.92
2023-05-23T18:27:34.427Z,16.27
2023-05-23T18:30:05.044Z,16.98
2023-05-23T18:32:35.730Z,16.65
2023-05-23T18:35:10.790Z,19.25
2023-05-23T18:37:41.867Z,18.77
2023-05-23T18:40:13.625Z,20.63
2023-05-23T18:42:44.205Z,24.40
2023-05-23T18:45:14.924Z,19.05
2023-05-23T18:47:45.595Z,20.38
2023-05-23T18:50:19.047Z,19.92
2023-05-23T18:52:49.622Z,21.50
2023-05-23T18:55:20.536Z,21.92
2023-05-23T19:00:22.044Z,24.87
2023-05-23T19:05:26.954Z,26.30
2023-05-23T19:07:57.602Z,22.95
2023-05-23T19:10:28.275Z,28.45
2023-05-23T19:12:58.821Z,23.10
2023-05-23T19:15:29.586Z,27.92
2023-05-23T19:18:00.085Z,26.83
2023-05-23T19:20:33.248Z,33.88
2023-05-23T19:23:04.387Z,21.80
2023-05-23T19:25:35.037Z,25.02
2023-05-23T19:28:06.287Z,26.17
2023-05-23T19:30:38.545Z,22.50
2023-05-23T19:33:09.237Z,24.73
2023-05-23T19:35:42.647Z,19.67
2023-05-23T19:38:13.230Z,25.80
2023-05-23T19:40:43.923Z,20.13
2023-05-23T19:43:14.611Z,21.35
2023-05-23T19:45:45.458Z,22.42
2023-05-23T19:48:16.279Z,20.80
2023-05-23T19:50:49.665Z,23.02
2023-05-23T19:53:20.297Z,19.40
2023-05-23T19:55:51.008Z,22.98
2023-05-23T19:58:21.923Z,24.48
2023-05-23T20:00:52.509Z,21.40
2023-05-23T20:03:23.255Z,18.13
2023-05-23T20:05:56.969Z,18.77
2023-05-23T20:08:27.750Z,18.25
2023-05-23T20:10:59.590Z,23.05
2023-05-23T20:13:30.985Z,20.60
2023-05-23T20:16:02.081Z,19.77
2023-05-23T20:18:32.765Z,24.13
2023-05-23T20:21:05.991Z,23.30
2023-05-23T20:23:37.242Z,22.48
2023-05-23T20:26:09.517Z,16.65
2023-05-23T20:28:40.387Z,20.35
2023-05-23T20:31:10.982Z,24.85
2023-05-23T20:33:41.502Z,25.67
2023-05-23T20:36:14.709Z,24.30
2023-05-23T20:38:45.199Z,24.35
2023-05-23T20:41:15.759Z,24.73
2023-05-23T20:43:46.672Z,19.83
2023-05-23T20:46:17.272Z,22.00
2023-05-23T20:48:47.809Z,24.23
2023-05-23T20:51:21.210Z,25.75
2023-05-23T20:53:51.925Z,23.08
2023-05-23T20:56:22.832Z,16.45
2023-05-23T21:01:24.636Z,22.23
2023-05-23T21:03:55.388Z,24.45
2023-05-23T21:06:28.582Z,20.95
2023-05-23T21:08:59.167Z,23.05
2023-05-23T21:11:29.662Z,25.08
2023-05-23T21:14:00.414Z,19.33
2023-05-23T21:16:33.335Z,17.05
2023-05-23T21:19:04.280Z,15.25
2023-05-23T21:21:37.778Z,18.52
2023-05-23T21:24:08.603Z,22.60
2023-05-23T21:26:39.269Z,21.35
2023-05-23T21:29:10.051Z,17.15
2023-05-23T21:31:42.130Z,17.33
2023-05-23T21:34:23.206Z,19.80
2023-05-23T21:36:57.837Z,19.05
2023-05-23T21:39:39.190Z,21.85
2023-05-23T21:42:17.780Z,16.67
2023-05-23T21:44:48.366Z,18.05
2023-05-23T21:47:19.366Z,18.50
2023-05-23T21:52:22.818Z,20.55
2023-05-23T21:54:53.386Z,18.13
2023-05-23T21:57:23.846Z,17.58
2023-05-23T21:59:54.543Z,18.58
2023-05-23T22:02:25.155Z,15.90
2023-05-23T22:04:56.049Z,23.58
2023-05-23T22:07:29.703Z,15.75
2023-05-23T22:10:03.020Z,20.05
2023-05-23T22:12:33.910Z,19.70
2023-05-23T22:15:04.532Z,19.33
2023-05-23T22:17:35.295Z,19.63
2023-05-23T22:20:07.508Z,18.75
2023-05-23T22:22:40.963Z,19.42
2023-05-23T22:25:12.524Z,22.50
2023-05-23T22:27:43.113Z,24.58
2023-05-23T22:30:15.222Z,16.98
2023-05-23T22:32:45.934Z,15.75
2023-05-23T22:35:16.590Z,20.83
2023-05-23T22:37:50.268Z,25.23
2023-05-23T22:40:21.086Z,16.70
2023-05-23T22:42:51.767Z,22.40
2023-05-23T22:45:22.489Z,21.05
2023-05-23T22:47:54.310Z,21.50
2023-05-23T22:50:27.248Z,15.30
2023-05-23T22:53:01.126Z,20.13
2023-05-23T22:55:31.638Z,23.27
2023-05-23T22:58:02.110Z,15.15
2023-05-23T23:00:32.744Z,19.08
2023-05-23T23:03:04.186Z,17.10
2023-05-23T23:05:35.006Z,24.77
2023-05-23T23:08:08.310Z,17.95
2023-05-23T23:10:39.033Z,16.00
2023-05-23T23:13:09.646Z,15.27
2023-05-23T23:15:40.577Z,24.40
2023-05-23T23:20:44.905Z,21.55
2023-05-23T23:23:18.403Z,17.70
2023-05-23T23:25:50.444Z,21.75
2023-05-23T23:28:21.126Z,19.00
2023-05-23T23:30:51.833Z,20.33
2023-05-23T23:33:22.335Z,15.05
2023-05-23T23:35:53.345Z,19.05
2023-05-23T23:40:56.676Z,15.43
2023-05-23T23:43:27.307Z,15.15
2023-05-23T23:45:57.915Z,14.60
2023-05-23T23:48:28.496Z,14.25
2023-05-23T23:50:59.142Z,23.50
2023-05-23T23:53:32.214Z,18.80
2023-05-23T23:56:02.899Z,16.08
2023-05-23T23:58:33.392Z,15.63
